Kezdőlap
METAR-TAF:

METAR-TAF

Repülőterek :

légibázis

Hachinohe, Japán

földrajzi szélesség: 40-33N, földrajzi hosszúság: 141-28E, magasság: 46 m

Jelenlegi meteorológiai megfigyelések

A jelentés 7 órával és 35 perccel ezelõtt készült, 06:06 UTC
Nyugat-délnyugati szél 21 kt széllökések: 36 kt
Hőmérséklet 16°C
Páratartalom 59%
Légköri nyomás 1000 hPa
Látótávolság 10 km, vagy több
Kevés felhő 3000 lábon
Szakadozott felhőzet 4000 lábon
Szakadozott felhőzet 20000 lábon

METAR: RJSH 250606Z 24021G36KT 9999 FEW030 BKN040 BKN200 16/08 Q1000 RMK 1CU030 5SC040 A2955

Idő: 22:41 (13:41 UTC)


TAF: hiányzik

Meteorológiai megfigyelések és előrejelzések több, mint 4000 repülőtéren (METAR és TAF jelentéseket).

A térképen piros és sárga pontok jelzik az elérhető meteorológiai állomásokat.

Mozgassa az egeret a pont fölött, hogy megjelenjen az állomás neve.

Azután kattintson az időjárási megfigyelések és előrejelzések megtekintéséhez.

A térkép megváltoztatása: kattintson a fekete keresztel jelölt zöld gombra ráközelítéshez, a vonallal jelölt zöld gombra távolításhoz, vagy a zöld nyilakra a szomszédos térképek eléréséhez.


METAR-TAF: